Time;durP1;ratioP1;P1;durP2;ratioP2;P2;SDS_P1;SDS_P2;PMS_P1;PMS_P2;Temp;Humidity;BMP_temperature;BMP_pressure;BME280_temperature;BME280_humidity;BME280_pressure;Samples;Min_cycle;Max_cycle;Signal;HPM_P1;HPM_P2
2023/04/11 00:01:50;;;;;;;2.90;2.70;;;17.40;43.80;;;;;;5044795;28;21017;-89
2023/04/11 00:04:19;;;;;;;3.30;2.77;;;17.50;45.70;;;;;;5093302;27;20585;-89
2023/04/11 00:06:46;;;;;;;4.30;3.00;;;17.60;47.30;;;;;;5044981;28;20957;-88
2023/04/11 00:09:15;;;;;;;3.77;2.43;;;17.60;48.60;;;;;;5049240;28;20439;-88
2023/04/11 00:11:42;;;;;;;2.20;2.00;;;17.30;49.60;;;;;;5042896;28;20483;-87
2023/04/11 00:14:11;;;;;;;3.10;2.77;;;17.20;49.40;;;;;;5074678;27;20456;-86
2023/04/11 00:16:38;;;;;;;3.70;3.17;;;17.20;51.30;;;;;;5057187;28;21036;-89
2023/04/11 00:19:06;;;;;;;3.00;2.23;;;17.30;51.80;;;;;;5106889;27;20542;-89
2023/04/11 00:21:34;;;;;;;3.63;2.67;;;17.20;53.20;;;;;;5050210;27;20463;-90
2023/04/11 00:24:01;;;;;;;3.93;2.80;;;17.30;52.10;;;;;;5088166;28;20468;-87
2023/04/11 00:26:30;;;;;;;3.50;2.30;;;17.40;53.60;;;;;;5069530;28;20519;-90
2023/04/11 00:28:57;;;;;;;4.00;3.50;;;17.40;53.90;;;;;;5084356;28;20795;-90
2023/04/11 00:31:24;;;;;;;3.23;2.77;;;17.50;54.00;;;;;;5075455;28;20471;-90
2023/04/11 00:33:51;;;;;;;3.37;2.90;;;17.60;54.20;;;;;;5107081;27;20462;-90
2023/04/11 00:36:18;;;;;;;4.30;3.60;;;17.60;53.70;;;;;;5078219;28;20450;-90
2023/04/11 00:38:45;;;;;;;4.23;3.27;;;17.50;54.20;;;;;;5093771;28;20499;-89
2023/04/11 00:41:12;;;;;;;3.67;3.17;;;17.50;54.80;;;;;;5092562;28;21057;-89
2023/04/11 00:43:41;;;;;;;3.80;3.10;;;17.50;54.80;;;;;;5109377;27;20483;-91
2023/04/11 00:46:09;;;;;;;3.37;2.80;;;17.40;55.00;;;;;;5063931;28;20874;-90
2023/04/11 00:48:36;;;;;;;4.37;2.93;;;17.30;55.50;;;;;;5074579;28;20447;-88
2023/04/11 00:51:03;;;;;;;5.40;3.10;;;17.10;56.20;;;;;;5081856;28;20498;-89
2023/04/11 00:53:31;;;;;;;3.00;2.57;;;17.10;56.40;;;;;;5091876;28;20548;-89
2023/04/11 00:55:59;;;;;;;3.80;2.70;;;17.00;56.60;;;;;;5067185;28;21213;-87
2023/04/11 00:58:27;;;;;;;2.57;2.33;;;17.00;57.20;;;;;;5071393;28;20494;-90
2023/04/11 01:00:55;;;;;;;3.07;2.70;;;16.90;57.70;;;;;;5046388;28;20536;-90
2023/04/11 01:03:22;;;;;;;4.30;2.50;;;16.90;57.60;;;;;;5075854;28;20823;-91
2023/04/11 01:05:52;;;;;;;3.00;2.80;;;16.80;58.10;;;;;;5055011;28;20534;-88
2023/04/11 01:08:21;;;;;;;4.80;3.10;;;16.70;57.90;;;;;;5075254;28;20456;-89
2023/04/11 01:10:48;;;;;;;4.80;2.33;;;16.70;58.10;;;;;;5064166;28;20477;-90
2023/04/11 01:13:15;;;;;;;3.07;2.83;;;16.80;57.50;;;;;;5088417;28;20496;-88
2023/04/11 01:15:42;;;;;;;5.07;3.00;;;16.80;58.10;;;;;;5056399;28;20447;-88
2023/04/11 01:18:11;;;;;;;3.10;2.80;;;16.80;58.00;;;;;;5072568;28;20452;-90
2023/04/11 01:20:38;;;;;;;3.13;2.83;;;16.80;58.70;;;;;;5076245;28;21056;-89
2023/04/11 01:23:07;;;;;;;2.90;2.60;;;16.80;58.10;;;;;;5075208;28;20447;-90
2023/04/11 01:25:35;;;;;;;4.03;3.17;;;16.80;58.10;;;;;;5089289;28;20447;-89
2023/04/11 01:28:03;;;;;;;2.60;2.40;;;16.80;58.00;;;;;;5088491;28;20451;-87
2023/04/11 01:30:30;;;;;;;3.30;2.83;;;16.90;58.30;;;;;;5050609;28;20714;-89
2023/04/11 01:32:57;;;;;;;6.60;2.77;;;16.70;58.50;;;;;;5069972;28;20543;-88
2023/04/11 01:35:24;;;;;;;4.87;3.20;;;16.40;59.00;;;;;;5063424;28;20760;-89
2023/04/11 01:37:52;;;;;;;5.53;2.57;;;16.50;59.50;;;;;;5073235;28;20987;-89
2023/04/11 01:40:21;;;;;;;4.27;3.00;;;16.40;59.50;;;;;;5106848;27;20475;-90
2023/04/11 01:42:50;;;;;;;3.30;3.00;;;16.40;59.80;;;;;;5053804;27;20454;-90
2023/04/11 01:45:22;;;;;;;3.10;2.90;;;16.30;60.20;;;;;;5067441;28;20454;-89
2023/04/11 01:47:50;;;;;;;4.30;3.47;;;16.40;60.40;;;;;;5053983;28;20456;-89
2023/04/11 01:50:18;;;;;;;3.30;3.00;;;16.50;60.10;;;;;;5044928;28;20470;-90
2023/04/11 01:52:46;;;;;;;3.90;3.30;;;16.60;59.50;;;;;;5090337;28;20451;-87
2023/04/11 01:55:13;;;;;;;3.93;3.03;;;16.60;59.70;;;;;;5092620;27;20546;-89
2023/04/11 01:57:40;;;;;;;4.10;3.37;;;16.70;59.50;;;;;;5057952;28;20578;-90
2023/04/11 02:00:10;;;;;;;5.10;3.27;;;16.80;59.20;;;;;;5041055;28;20479;-90
2023/04/11 02:02:43;;;;;;;3.37;3.07;;;16.90;58.60;;;;;;5056580;28;20551;-89
2023/04/11 02:05:11;;;;;;;5.00;3.10;;;16.90;58.60;;;;;;5051859;28;20996;-90
2023/04/11 02:07:38;;;;;;;3.90;2.50;;;16.70;59.00;;;;;;5075514;28;20451;-91
2023/04/11 02:10:07;;;;;;;4.20;2.97;;;16.60;59.60;;;;;;5046317;28;20451;-89
2023/04/11 02:12:34;;;;;;;3.13;2.83;;;16.40;60.00;;;;;;5082986;28;20490;-90
2023/04/11 02:15:01;;;;;;;2.70;2.50;;;16.40;60.40;;;;;;5077496;28;20460;-91
2023/04/11 02:17:30;;;;;;;2.93;2.30;;;16.40;60.80;;;;;;5041450;28;20553;-90
2023/04/11 02:19:57;;;;;;;2.67;2.47;;;16.40;61.10;;;;;;5078619;27;20467;-89
2023/04/11 02:22:24;;;;;;;3.77;2.47;;;16.30;61.30;;;;;;5075408;28;21063;-87
2023/04/11 02:24:52;;;;;;;2.63;2.37;;;16.20;61.40;;;;;;5046239;28;20447;-90
2023/04/11 02:27:19;;;;;;;3.40;2.50;;;16.20;61.50;;;;;;5051493;28;20538;-88
2023/04/11 02:29:46;;;;;;;4.83;2.63;;;16.20;61.00;;;;;;5072321;28;20449;-90
2023/04/11 02:32:16;;;;;;;2.73;2.03;;;16.20;61.20;;;;;;5081517;28;20452;-87
2023/04/11 02:34:44;;;;;;;4.00;2.07;;;16.00;61.40;;;;;;5073203;28;20534;-90
2023/04/11 02:37:11;;;;;;;2.30;2.10;;;15.90;61.60;;;;;;5044499;28;20464;-90
2023/04/11 02:39:38;;;;;;;3.33;2.07;;;16.00;61.70;;;;;;5063636;27;20463;-87
2023/04/11 02:42:05;;;;;;;6.17;2.27;;;15.90;61.90;;;;;;5054882;28;20563;-87
2023/04/11 02:44:32;;;;;;;1.93;1.73;;;15.60;62.30;;;;;;5080054;28;20475;-89
2023/04/11 02:47:01;;;;;;;2.87;1.80;;;15.50;62.40;;;;;;5086397;28;20453;-88
2023/04/11 02:49:28;;;;;;;2.07;1.33;;;14.90;62.40;;;;;;5093293;28;20483;-88
2023/04/11 02:51:58;;;;;;;2.20;1.40;;;14.50;62.10;;;;;;5078309;27;20465;-87
2023/04/11 02:54:25;;;;;;;1.50;1.17;;;14.50;62.60;;;;;;5049960;28;20497;-89
2023/04/11 02:56:54;;;;;;;1.77;1.53;;;14.50;61.90;;;;;;5066981;27;20447;-86
2023/04/11 02:59:21;;;;;;;1.37;1.27;;;14.50;62.60;;;;;;5068588;28;20447;-88
2023/04/11 03:01:48;;;;;;;2.13;1.30;;;14.30;61.70;;;;;;5080493;28;20466;-89
2023/04/11 03:04:16;;;;;;;2.23;1.23;;;14.40;63.10;;;;;;5065396;28;20952;-89
2023/04/11 03:06:54;;;;;;;1.93;1.60;;;14.50;63.20;;;;;;5053969;28;20443;-89
2023/04/11 03:09:23;;;;;;;1.43;1.30;;;14.70;62.30;;;;;;5068984;28;20452;-89
2023/04/11 03:11:50;;;;;;;3.37;1.30;;;14.70;61.80;;;;;;5066421;27;20463;-88
2023/04/11 03:14:17;;;;;;;1.67;1.20;;;14.50;61.90;;;;;;5062710;28;20539;-90
2023/04/11 03:16:44;;;;;;;1.43;1.20;;;14.50;61.90;;;;;;5053357;28;20452;-86
2023/04/11 03:19:12;;;;;;;4.50;1.37;;;14.50;61.20;;;;;;5086068;28;20456;-89
2023/04/11 03:21:39;;;;;;;1.10;0.90;;;14.40;60.50;;;;;;5079948;28;20477;-90
2023/04/11 03:24:07;;;;;;;2.07;1.10;;;14.30;59.90;;;;;;5056469;28;20452;-88
2023/04/11 03:26:35;;;;;;;1.43;1.30;;;14.30;60.20;;;;;;5061014;28;20446;-88
2023/04/11 03:29:09;;;;;;;2.67;1.20;;;14.40;60.80;;;;;;5089490;28;20531;-89
2023/04/11 03:31:45;;;;;;;2.27;1.30;;;14.40;61.40;;;;;;5085282;27;20471;-87
2023/04/11 03:34:13;;;;;;;2.30;1.10;;;14.60;61.70;;;;;;5059416;28;20462;-89
2023/04/11 03:36:41;;;;;;;1.50;1.00;;;14.70;61.20;;;;;;5048683;27;20869;-87
2023/04/11 03:39:08;;;;;;;1.10;1.00;;;14.80;60.60;;;;;;5053248;28;20549;-89
2023/04/11 03:41:37;;;;;;;2.07;1.20;;;15.00;60.30;;;;;;5046149;28;21012;-88
2023/04/11 03:44:07;;;;;;;1.90;1.20;;;15.10;59.90;;;;;;5079015;28;20494;-88
2023/04/11 03:46:34;;;;;;;1.50;1.33;;;15.00;59.50;;;;;;5047465;28;20546;-87
2023/04/11 03:49:02;;;;;;;1.53;0.90;;;14.60;59.50;;;;;;5068437;27;20507;-89
2023/04/11 03:51:30;;;;;;;1.67;0.80;;;14.40;59.20;;;;;;5083086;28;20554;-87
2023/04/11 03:54:03;;;;;;;2.23;0.80;;;14.30;59.20;;;;;;5095128;28;20458;-88
2023/04/11 03:56:37;;;;;;;1.10;0.97;;;14.30;59.70;;;;;;5079284;28;20458;-89
2023/04/11 03:59:06;;;;;;;1.10;0.83;;;14.20;58.60;;;;;;5048142;28;20460;-87
2023/04/11 04:01:59;;;;;;;1.03;0.90;;;14.40;58.70;;;;;;5055817;28;20551;-86
2023/04/11 04:04:27;;;;;;;1.40;0.90;;;14.50;58.50;;;;;;5075476;28;20451;-89
2023/04/11 04:07:08;;;;;;;2.00;0.90;;;14.70;58.80;;;;;;5080940;28;20488;-89
2023/04/11 04:09:40;;;;;;;5.00;1.10;;;14.70;58.70;;;;;;5075868;28;20550;-87
2023/04/11 04:12:09;;;;;;;1.53;1.00;;;14.70;57.70;;;;;;5060437;28;20627;-89
2023/04/11 04:14:56;;;;;;;1.17;0.97;;;14.80;58.30;;;;;;5073763;28;20440;-87
2023/04/11 04:17:24;;;;;;;2.63;0.97;;;14.80;57.60;;;;;;5102065;27;20458;-89
2023/04/11 04:19:51;;;;;;;1.10;0.90;;;14.70;57.30;;;;;;5069042;27;21207;-89
2023/04/11 04:22:21;;;;;;;2.73;0.93;;;14.60;56.80;;;;;;5081126;28;20479;-89
2023/04/11 04:24:56;;;;;;;2.73;1.33;;;14.60;57.50;;;;;;5078446;28;20461;-87
2023/04/11 04:27:29;;;;;;;1.70;1.00;;;14.60;57.30;;;;;;5075572;28;20435;-88
2023/04/11 04:29:57;;;;;;;8.10;7.40;;;14.70;57.80;;;;;;5091473;28;20973;-88
2023/04/11 04:32:29;;;;;;;3.47;3.20;;;14.60;57.70;;;;;;5081550;28;20452;-89
2023/04/11 04:35:01;;;;;;;1.23;1.10;;;14.50;58.00;;;;;;5078125;28;20458;-89
2023/04/11 04:37:38;;;;;;;1.60;1.27;;;14.30;58.10;;;;;;5050774;28;20826;-89
2023/04/11 04:40:19;;;;;;;1.50;1.40;;;14.00;57.70;;;;;;5078207;28;20496;-88
2023/04/11 04:43:10;;;;;;;3.10;2.00;;;13.50;58.90;;;;;;5062873;27;20563;-86
2023/04/11 04:45:57;;;;;;;5.13;2.30;;;13.70;60.00;;;;;;5052619;28;20559;-88
2023/04/11 04:48:30;;;;;;;4.20;3.30;;;13.60;59.50;;;;;;5047300;28;20447;-90
2023/04/11 04:50:58;;;;;;;2.93;2.60;;;13.40;60.00;;;;;;5044041;28;20464;-92
2023/04/11 04:53:25;;;;;;;2.00;1.90;;;13.20;60.90;;;;;;5079994;28;20467;-88
2023/04/11 04:55:57;;;;;;;1.30;1.20;;;13.20;61.20;;;;;;5060775;28;20459;-89
2023/04/11 04:58:27;;;;;;;2.40;1.50;;;13.30;60.60;;;;;;5037959;28;20972;-89
2023/04/11 05:00:55;;;;;;;2.07;1.97;;;13.20;60.80;;;;;;5059016;28;20494;-89
2023/04/11 05:03:25;;;;;;;3.93;1.20;;;13.20;61.20;;;;;;5085337;28;20446;-90
2023/04/11 05:05:53;;;;;;;1.10;0.90;;;13.00;60.90;;;;;;5075060;28;20463;-89
2023/04/11 05:08:21;;;;;;;1.93;0.80;;;13.20;60.90;;;;;;5075914;28;20456;-90
2023/04/11 05:10:48;;;;;;;2.50;1.00;;;13.30;60.00;;;;;;5040065;28;20460;-91
2023/04/11 05:13:16;;;;;;;3.10;1.10;;;13.30;60.60;;;;;;5077067;28;20491;-87
2023/04/11 05:15:49;;;;;;;1.00;0.80;;;13.20;60.80;;;;;;5046832;28;20450;-86
2023/04/11 05:18:17;;;;;;;1.20;1.10;;;13.00;61.60;;;;;;5073555;28;20454;-86
2023/04/11 05:20:45;;;;;;;1.27;0.90;;;13.00;61.70;;;;;;5041028;28;20549;-87
2023/04/11 05:23:17;;;;;;;1.53;1.33;;;13.00;61.30;;;;;;5081497;28;20443;-87
2023/04/11 05:25:44;;;;;;;5.33;1.30;;;12.90;61.70;;;;;;5065154;28;20440;-88
2023/04/11 05:28:14;;;;;;;1.17;1.00;;;13.00;61.80;;;;;;5080945;28;20542;-87
2023/04/11 05:30:42;;;;;;;2.47;1.67;;;12.90;62.30;;;;;;5092343;28;20481;-88
2023/04/11 05:33:13;;;;;;;7.03;1.00;;;12.70;61.70;;;;;;5057370;28;20474;-87
2023/04/11 05:35:42;;;;;;;1.47;1.37;;;12.60;62.60;;;;;;5085177;28;20480;-86
2023/04/11 05:38:09;;;;;;;1.07;0.90;;;12.50;62.60;;;;;;5038172;28;20565;-87
2023/04/11 05:40:37;;;;;;;3.33;1.47;;;12.50;63.20;;;;;;5041576;28;20471;-87
2023/04/11 05:43:04;;;;;;;4.70;2.03;;;12.60;62.10;;;;;;5072544;28;20512;-88
2023/04/11 05:45:31;;;;;;;5.03;2.20;;;12.50;61.50;;;;;;5047973;28;20459;-87
2023/04/11 05:47:58;;;;;;;2.60;0.73;;;12.70;61.30;;;;;;5069478;28;20471;-87
2023/04/11 05:50:26;;;;;;;1.50;1.10;;;12.60;59.80;;;;;;5087459;28;20544;-89
2023/04/11 05:52:53;;;;;;;1.20;0.90;;;12.60;60.50;;;;;;5073572;28;20470;-87
2023/04/11 05:55:20;;;;;;;1.87;1.37;;;12.70;60.60;;;;;;5060953;28;20452;-86
2023/04/11 05:57:47;;;;;;;4.70;1.73;;;12.70;59.70;;;;;;5076492;28;20495;-87
2023/04/11 06:00:16;;;;;;;1.30;1.20;;;12.80;59.50;;;;;;5048499;28;20558;-88
2023/04/11 06:02:45;;;;;;;2.40;1.07;;;12.90;59.90;;;;;;5070045;28;20521;-89
2023/04/11 06:05:12;;;;;;;1.43;1.03;;;12.90;59.20;;;;;;5055086;28;20459;-87
2023/04/11 06:07:41;;;;;;;1.83;1.60;;;12.90;58.60;;;;;;5073168;28;20453;-87
2023/04/11 06:10:09;;;;;;;4.27;1.43;;;12.80;58.10;;;;;;5085478;28;20458;-86
2023/04/11 06:12:37;;;;;;;1.00;0.80;;;12.90;58.40;;;;;;5069806;28;20964;-87
2023/04/11 06:15:05;;;;;;;2.10;1.33;;;12.90;57.90;;;;;;5101347;27;20573;-86
2023/04/11 06:17:32;;;;;;;2.63;1.30;;;13.00;57.90;;;;;;5087663;28;20443;-86
2023/04/11 06:19:59;;;;;;;2.40;1.83;;;12.90;58.30;;;;;;5084470;28;20450;-86
2023/04/11 06:22:26;;;;;;;5.20;1.80;;;12.80;58.60;;;;;;5077684;28;20987;-86
2023/04/11 06:24:54;;;;;;;2.03;1.70;;;12.80;58.80;;;;;;5079365;28;20459;-85
2023/04/11 06:27:22;;;;;;;2.20;0.93;;;12.80;58.80;;;;;;5073107;28;20451;-86
2023/04/11 06:29:49;;;;;;;3.00;1.20;;;12.90;58.30;;;;;;5074503;28;20452;-86
2023/04/11 06:32:16;;;;;;;3.50;1.50;;;13.00;58.00;;;;;;5076455;28;20498;-85
2023/04/11 06:34:43;;;;;;;1.33;1.00;;;12.90;58.00;;;;;;5050499;28;20459;-85
2023/04/11 06:37:10;;;;;;;2.50;1.17;;;13.10;58.30;;;;;;5087611;28;20447;-84
2023/04/11 06:39:37;;;;;;;3.50;1.77;;;13.10;57.20;;;;;;5092682;28;20439;-85
2023/04/11 06:42:06;;;;;;;1.50;1.40;;;12.90;58.60;;;;;;5059890;28;21229;-85
2023/04/11 06:44:33;;;;;;;3.50;1.30;;;13.10;59.40;;;;;;5064237;28;21000;-86
2023/04/11 06:47:00;;;;;;;4.60;1.10;;;13.40;58.40;;;;;;5079201;28;21204;-85
2023/04/11 06:49:28;;;;;;;2.90;1.80;;;13.60;57.90;;;;;;5062874;28;20455;-85
2023/04/11 06:51:55;;;;;;;5.13;1.10;;;13.70;57.50;;;;;;5087226;27;20468;-86
2023/04/11 06:54:22;;;;;;;1.93;1.27;;;13.50;57.10;;;;;;5082590;28;20480;-86
2023/04/11 06:56:50;;;;;;;4.40;1.27;;;13.50;57.90;;;;;;5067454;27;20519;-86
2023/04/11 06:59:19;;;;;;;3.97;1.90;;;13.70;57.90;;;;;;5089616;27;20458;-85
2023/04/11 07:01:46;;;;;;;3.17;1.33;;;13.60;57.40;;;;;;5052137;28;20460;-87
2023/04/11 07:04:13;;;;;;;3.70;1.70;;;13.40;57.60;;;;;;5062406;28;20482;-86
2023/04/11 07:06:40;;;;;;;4.10;1.47;;;13.30;58.00;;;;;;5089748;28;20578;-87
2023/04/11 07:09:08;;;;;;;1.93;1.73;;;13.40;58.30;;;;;;5080257;27;20454;-86
2023/04/11 07:11:37;;;;;;;2.00;1.40;;;13.30;57.80;;;;;;5088913;28;20474;-86
2023/04/11 07:14:05;;;;;;;3.53;1.83;;;12.90;58.30;;;;;;5053878;28;20466;-85
2023/04/11 07:16:35;;;;;;;4.00;1.80;;;12.90;59.10;;;;;;5085420;27;20442;-85
2023/04/11 07:19:02;;;;;;;2.30;1.30;;;13.00;58.40;;;;;;5074089;28;20962;-86
2023/04/11 07:21:31;;;;;;;7.13;1.70;;;13.00;56.60;;;;;;5069401;28;20491;-86
2023/04/11 07:23:59;;;;;;;6.80;1.83;;;12.90;58.30;;;;;;5067090;28;20459;-84
2023/04/11 07:26:30;;;;;;;2.60;1.43;;;12.80;57.50;;;;;;5088220;27;20470;-85
2023/04/11 07:28:58;;;;;;;8.93;2.37;;;12.90;58.30;;;;;;5084721;28;20452;-84
2023/04/11 07:31:26;;;;;;;3.13;1.77;;;13.10;58.00;;;;;;5088514;27;20490;-85
2023/04/11 07:33:54;;;;;;;6.53;1.20;;;13.10;58.20;;;;;;5077644;28;20472;-85
2023/04/11 07:36:21;;;;;;;5.67;1.30;;;13.20;57.80;;;;;;5105480;27;20442;-84
2023/04/11 07:38:48;;;;;;;2.80;2.03;;;13.30;57.50;;;;;;5088027;28;20530;-85
2023/04/11 07:41:15;;;;;;;2.90;1.23;;;13.50;58.50;;;;;;5073695;28;20478;-85
2023/04/11 07:43:42;;;;;;;6.30;2.10;;;13.60;57.20;;;;;;5070463;28;20459;-85
2023/04/11 07:46:10;;;;;;;7.80;1.60;;;13.80;57.40;;;;;;5099765;27;20449;-85
2023/04/11 07:48:38;;;;;;;4.00;1.53;;;13.80;55.60;;;;;;5089500;28;20438;-85
2023/04/11 07:51:07;;;;;;;2.40;1.53;;;13.80;56.40;;;;;;5086472;28;20468;-86
2023/04/11 07:53:34;;;;;;;5.50;1.70;;;13.60;57.10;;;;;;5069626;28;20476;-85
2023/04/11 07:56:01;;;;;;;10.43;5.20;;;13.70;58.00;;;;;;5088713;28;20435;-86
2023/04/11 07:58:29;;;;;;;2.53;1.67;;;13.70;57.80;;;;;;5071515;28;20925;-85
2023/04/11 08:00:56;;;;;;;4.60;1.80;;;13.80;56.30;;;;;;5069329;28;20471;-86
2023/04/11 08:03:23;;;;;;;2.47;1.80;;;13.80;56.40;;;;;;5070668;28;20521;-85
2023/04/11 08:05:51;;;;;;;3.20;1.50;;;14.00;56.80;;;;;;5068521;28;20945;-85
2023/04/11 08:08:19;;;;;;;2.70;1.10;;;14.00;56.30;;;;;;5084303;27;21085;-86
2023/04/11 08:10:46;;;;;;;8.83;1.53;;;14.10;54.90;;;;;;5087540;27;20531;-85
2023/04/11 08:13:13;;;;;;;1.50;1.30;;;13.90;54.40;;;;;;5101709;27;20506;-85
2023/04/11 08:15:40;;;;;;;4.37;2.20;;;13.70;54.90;;;;;;5088400;28;20976;-85
2023/04/11 08:18:07;;;;;;;3.33;2.10;;;13.70;55.80;;;;;;5088632;27;20451;-85
2023/04/11 08:20:35;;;;;;;5.37;1.40;;;13.90;55.80;;;;;;5077240;28;20475;-85
2023/04/11 08:23:06;;;;;;;4.93;1.70;;;13.90;54.00;;;;;;5086294;28;20533;-85
2023/04/11 08:25:35;;;;;;;2.17;1.30;;;13.90;53.90;;;;;;5089657;27;20448;-85
2023/04/11 08:28:03;;;;;;;8.50;1.40;;;14.00;52.70;;;;;;5085621;28;20934;-85
2023/04/11 08:30:31;;;;;;;2.40;1.00;;;14.00;53.90;;;;;;5087434;28;20845;-85
2023/04/11 08:32:58;;;;;;;3.10;1.40;;;14.10;51.60;;;;;;5065756;28;20450;-85
2023/04/11 08:35:25;;;;;;;1.70;1.23;;;14.10;51.70;;;;;;5058581;28;20542;-85
2023/04/11 08:37:52;;;;;;;2.13;1.10;;;14.20;51.40;;;;;;5087577;27;20479;-85
2023/04/11 08:40:19;;;;;;;5.07;1.87;;;14.30;52.40;;;;;;5051800;28;21030;-85
2023/04/11 08:42:47;;;;;;;7.67;1.87;;;14.60;50.80;;;;;;5086484;28;20999;-85
2023/04/11 08:45:14;;;;;;;2.43;1.20;;;14.50;48.80;;;;;;5084731;28;20455;-85
2023/04/11 08:47:41;;;;;;;1.10;1.00;;;14.50;50.00;;;;;;5084170;28;20447;-85
2023/04/11 08:50:09;;;;;;;5.20;1.40;;;14.60;48.90;;;;;;5086147;28;20535;-86
2023/04/11 08:52:39;;;;;;;3.37;1.20;;;14.60;48.90;;;;;;5083776;28;20467;-85
2023/04/11 08:55:07;;;;;;;3.20;1.20;;;14.70;47.70;;;;;;5066666;28;21131;-85
2023/04/11 08:57:36;;;;;;;3.20;1.30;;;14.80;46.80;;;;;;5087760;28;20444;-85
2023/04/11 09:00:13;;;;;;;3.53;1.40;;;15.00;46.60;;;;;;5086006;28;20451;-86
2023/04/11 09:02:56;;;;;;;1.23;1.03;;;15.10;45.30;;;;;;5087974;28;20474;-85
2023/04/11 09:05:28;;;;;;;3.53;1.20;;;15.20;46.70;;;;;;5104522;27;20452;-85
2023/04/11 09:07:56;;;;;;;5.87;1.30;;;15.20;45.10;;;;;;5099233;27;20455;-85
2023/04/11 09:10:24;;;;;;;4.03;1.40;;;15.30;46.10;;;;;;5084443;28;20520;-85
2023/04/11 09:12:53;;;;;;;4.00;1.03;;;15.10;44.60;;;;;;5100771;27;20512;-85
2023/04/11 09:15:24;;;;;;;1.70;1.03;;;14.80;45.30;;;;;;5085282;28;20451;-85
2023/04/11 09:17:52;;;;;;;5.43;1.20;;;14.90;47.10;;;;;;5088056;28;20455;-85
2023/04/11 09:20:20;;;;;;;5.80;1.80;;;14.80;48.70;;;;;;5087884;28;20519;-85
2023/04/11 09:22:49;;;;;;;3.77;2.00;;;14.70;48.80;;;;;;5087790;28;20483;-85
2023/04/11 09:25:17;;;;;;;3.00;1.63;;;14.80;48.70;;;;;;5070462;28;20462;-85
2023/04/11 09:27:44;;;;;;;1.93;1.33;;;15.00;47.40;;;;;;5069343;28;20455;-85
2023/04/11 09:30:25;;;;;;;2.67;1.40;;;15.40;49.10;;;;;;5083817;28;20455;-85
2023/04/11 09:32:53;;;;;;;1.40;1.00;;;15.50;42.50;;;;;;5086832;28;20473;-85
2023/04/11 09:35:23;;;;;;;4.17;1.50;;;15.50;44.50;;;;;;5086897;28;20535;-85
2023/04/11 09:37:53;;;;;;;3.47;1.63;;;15.60;44.40;;;;;;5103842;27;20577;-86
2023/04/11 09:40:23;;;;;;;4.63;1.37;;;15.80;43.80;;;;;;5085581;28;20558;-85
2023/04/11 09:42:57;;;;;;;2.50;1.00;;;15.70;42.70;;;;;;5087899;28;20576;-85
2023/04/11 09:45:26;;;;;;;3.93;1.80;;;15.60;43.70;;;;;;5069199;28;20462;-86
2023/04/11 09:47:55;;;;;;;3.77;1.13;;;15.50;44.80;;;;;;5084287;28;20515;-85
2023/04/11 09:50:23;;;;;;;1.93;1.17;;;15.50;46.00;;;;;;5086473;28;20868;-84
2023/04/11 09:52:51;;;;;;;5.00;1.07;;;15.40;45.10;;;;;;5070454;28;20443;-85
2023/04/11 09:55:20;;;;;;;3.33;1.40;;;15.40;44.10;;;;;;5086362;28;20466;-85
2023/04/11 09:57:49;;;;;;;5.87;1.30;;;15.30;45.40;;;;;;5085544;28;20434;-84
2023/04/11 10:00:20;;;;;;;8.63;1.10;;;15.80;44.30;;;;;;5087868;27;20902;-86
2023/04/11 10:02:51;;;;;;;6.47;1.00;;;16.20;43.60;;;;;;5090225;28;20475;-85
2023/04/11 10:05:19;;;;;;;6.40;1.30;;;16.40;43.00;;;;;;5090526;27;20549;-87
2023/04/11 10:07:50;;;;;;;2.17;1.10;;;16.60;42.10;;;;;;5090088;28;20439;-85
2023/04/11 10:10:19;;;;;;;3.60;1.10;;;16.70;41.30;;;;;;5085560;28;20463;-85
2023/04/11 10:12:47;;;;;;;2.60;1.33;;;16.10;46.40;;;;;;5071288;28;20535;-86
2023/04/11 10:15:15;;;;;;;4.43;1.20;;;15.60;48.90;;;;;;5105688;27;20454;-85
2023/04/11 10:17:43;;;;;;;1.80;1.43;;;14.20;53.00;;;;;;5066313;28;20986;-86
2023/04/11 10:20:45;;;;;;;5.00;1.30;;;13.30;57.30;;;;;;5090473;28;20453;-86
2023/04/11 10:23:12;;;;;;;8.43;1.50;;;13.10;58.90;;;;;;5088267;28;20475;-85
2023/04/11 10:25:51;;;;;;;2.90;1.23;;;13.20;58.00;;;;;;5061942;28;20463;-86
2023/04/11 10:28:37;;;;;;;3.33;1.30;;;13.30;57.40;;;;;;5073867;28;20516;-85
2023/04/11 10:31:07;;;;;;;3.10;1.23;;;13.80;57.40;;;;;;5109252;27;20570;-85
2023/04/11 10:33:36;;;;;;;3.00;2.70;;;14.40;55.70;;;;;;5062086;28;20585;-86
2023/04/11 10:36:08;;;;;;;8.33;3.40;;;14.80;55.40;;;;;;5071418;27;20547;-85
2023/04/11 10:38:49;;;;;;;1.87;1.70;;;15.10;53.20;;;;;;5081547;28;20456;-84
2023/04/11 10:41:27;;;;;;;6.20;3.60;;;15.50;54.80;;;;;;5106692;27;20502;-87
2023/04/11 10:44:19;;;;;;;6.10;5.03;;;15.70;53.90;;;;;;5094451;28;21012;-85
2023/04/11 10:46:48;;;;;;;4.50;2.20;;;16.00;52.60;;;;;;5093051;28;20467;-85
2023/04/11 10:49:34;;;;;;;5.47;3.10;;;16.20;51.70;;;;;;5088026;28;20562;-86
2023/04/11 10:52:20;;;;;;;3.53;1.73;;;16.40;51.90;;;;;;5074274;27;20519;-86
2023/04/11 10:54:47;;;;;;;3.13;1.70;;;16.80;50.70;;;;;;5093748;27;21193;-85
2023/04/11 10:57:14;;;;;;;2.97;1.10;;;17.00;50.00;;;;;;5075645;28;20543;-85
2023/04/11 11:00:00;;;;;;;3.20;1.20;;;17.40;51.70;;;;;;5092252;28;20458;-85
2023/04/11 11:02:38;;;;;;;3.87;1.43;;;17.40;46.10;;;;;;5057636;28;20474;-86
2023/04/11 11:05:19;;;;;;;1.77;1.10;;;17.00;45.90;;;;;;5073060;28;20451;-85
2023/04/11 11:07:52;;;;;;;3.50;1.80;;;17.00;46.60;;;;;;5065379;28;20445;-85
2023/04/11 11:10:39;;;;;;;2.07;1.37;;;17.20;49.50;;;;;;5070395;28;20481;-84
2023/04/11 11:13:06;;;;;;;3.10;1.77;;;17.30;43.30;;;;;;5089394;27;20487;-85
2023/04/11 11:15:36;;;;;;;2.70;1.20;;;17.30;42.30;;;;;;5091670;28;20447;-86
2023/04/11 11:18:08;;;;;;;3.40;1.47;;;17.30;44.60;;;;;;5059482;27;20462;-85
2023/04/11 11:20:36;;;;;;;4.27;1.10;;;17.40;41.50;;;;;;5092626;28;21175;-85
2023/04/11 11:23:06;;;;;;;1.10;0.80;;;17.40;42.40;;;;;;5087817;28;20471;-85
2023/04/11 11:25:34;;;;;;;2.23;0.90;;;17.50;41.70;;;;;;5088431;27;20546;-85
2023/04/11 11:28:06;;;;;;;3.00;1.00;;;17.60;39.20;;;;;;5088754;28;20447;-84
2023/04/11 11:30:34;;;;;;;1.17;0.73;;;17.60;38.90;;;;;;5091040;28;20463;-84
2023/04/11 11:33:16;;;;;;;3.23;1.43;;;17.60;39.80;;;;;;5089059;28;20885;-84
2023/04/11 11:35:45;;;;;;;1.60;1.10;;;17.60;39.30;;;;;;5089483;28;20531;-85
2023/04/11 11:38:14;;;;;;;5.53;1.30;;;17.60;38.40;;;;;;5069786;28;20463;-85
2023/04/11 11:40:41;;;;;;;1.73;0.90;;;17.80;40.20;;;;;;5085886;28;20543;-85
2023/04/11 11:43:08;;;;;;;4.23;0.90;;;18.10;41.00;;;;;;5086355;27;20565;-85
2023/04/11 11:45:35;;;;;;;2.33;0.80;;;18.20;40.50;;;;;;5088667;27;20462;-85
2023/04/11 11:48:02;;;;;;;1.00;0.80;;;18.20;40.80;;;;;;5084125;28;20450;-85
2023/04/11 11:50:30;;;;;;;1.70;1.30;;;18.30;42.00;;;;;;5071084;28;20467;-84
2023/04/11 11:52:59;;;;;;;4.40;0.83;;;18.20;40.70;;;;;;5054686;28;20815;-84
2023/04/11 11:55:33;;;;;;;5.13;1.30;;;17.80;39.50;;;;;;5072939;28;20516;-84
2023/04/11 11:58:02;;;;;;;5.53;1.10;;;17.60;40.80;;;;;;5085401;27;20819;-84
2023/04/11 12:00:31;;;;;;;3.73;1.10;;;17.20;40.20;;;;;;5085251;28;20477;-86
2023/04/11 12:02:59;;;;;;;4.40;1.20;;;16.80;47.10;;;;;;5103948;27;20474;-86
2023/04/11 12:05:28;;;;;;;1.10;1.00;;;16.40;50.40;;;;;;5069242;28;20695;-85
2023/04/11 12:07:58;;;;;;;2.03;1.10;;;16.20;48.80;;;;;;5088041;28;20555;-85
2023/04/11 12:10:37;;;;;;;1.37;1.13;;;16.20;52.70;;;;;;5086218;28;21172;-85
2023/04/11 12:13:15;;;;;;;1.43;1.23;;;16.60;51.30;;;;;;5068814;28;21016;-84
2023/04/11 12:15:48;;;;;;;1.87;1.33;;;17.00;48.80;;;;;;5079366;28;20463;-85
2023/04/11 12:18:15;;;;;;;3.23;0.97;;;17.30;48.10;;;;;;5088411;28;20530;-85
2023/04/11 12:20:42;;;;;;;3.03;1.00;;;17.60;48.10;;;;;;5090308;27;20558;-85
2023/04/11 12:23:09;;;;;;;2.30;1.00;;;17.70;47.00;;;;;;5087725;27;20961;-84
2023/04/11 12:25:37;;;;;;;1.20;1.00;;;17.80;45.00;;;;;;5090932;28;20801;-85
2023/04/11 12:28:06;;;;;;;1.20;1.03;;;17.90;44.50;;;;;;5090065;28;20466;-85
2023/04/11 12:30:33;;;;;;;1.10;1.00;;;17.80;44.90;;;;;;5106365;27;20526;-86
2023/04/11 12:33:00;;;;;;;1.60;1.20;;;18.10;43.60;;;;;;5088696;28;20528;-85
2023/04/11 12:35:27;;;;;;;1.10;0.80;;;18.40;44.70;;;;;;5078175;28;21047;-84
2023/04/11 12:37:54;;;;;;;5.83;1.37;;;18.30;42.60;;;;;;5091412;28;20542;-84
2023/04/11 12:40:21;;;;;;;3.17;1.13;;;18.10;42.60;;;;;;5086923;28;20524;-84
2023/04/11 12:42:50;;;;;;;3.80;1.23;;;18.00;41.40;;;;;;5089139;28;20943;-84
2023/04/11 12:45:17;;;;;;;2.80;0.90;;;18.10;41.50;;;;;;5087811;28;20855;-84
2023/04/11 12:47:44;;;;;;;3.03;0.80;;;18.30;40.10;;;;;;5090931;28;21220;-83
2023/04/11 12:50:11;;;;;;;4.23;0.93;;;18.10;39.70;;;;;;5084753;27;20496;-84
2023/04/11 12:52:38;;;;;;;3.20;1.10;;;18.10;40.50;;;;;;5088384;28;20446;-84
2023/04/11 12:55:07;;;;;;;2.47;1.13;;;18.30;39.30;;;;;;5088435;28;20453;-83
2023/04/11 12:57:34;;;;;;;1.20;0.87;;;18.10;36.90;;;;;;5071865;28;20999;-84
2023/04/11 13:00:07;;;;;;;1.43;0.90;;;18.20;36.90;;;;;;5076314;28;20455;-83